createdAt,value
2022-09-02T00:00:08.813Z,357
2022-09-02T00:01:07.516Z,368
2022-09-02T00:02:08.344Z,379
2022-09-02T00:03:07.673Z,372
2022-09-02T00:04:07.432Z,368
2022-09-02T00:05:08.363Z,363
2022-09-02T00:07:07.394Z,386
2022-09-02T00:08:07.884Z,352
2022-09-02T00:09:07.544Z,360
2022-09-02T00:11:07.670Z,362
2022-09-02T00:12:07.297Z,370
2022-09-02T00:13:07.655Z,377
2022-09-02T00:14:07.132Z,366
2022-09-02T00:15:07.886Z,361
2022-09-02T00:16:08.152Z,360
2022-09-02T00:17:07.389Z,363
2022-09-02T00:18:08.485Z,366
2022-09-02T00:19:07.438Z,368
2022-09-02T00:20:07.428Z,358
2022-09-02T00:21:07.099Z,347
2022-09-02T00:22:07.683Z,362
2022-09-02T00:23:07.342Z,344
2022-09-02T00:24:07.152Z,359
2022-09-02T00:25:07.717Z,361
2022-09-02T00:26:07.203Z,360
2022-09-02T00:27:07.614Z,363
2022-09-02T00:28:07.218Z,366
2022-09-02T00:29:07.847Z,373
2022-09-02T00:30:07.742Z,367
2022-09-02T00:31:07.416Z,362
2022-09-02T00:32:08.053Z,357
2022-09-02T00:33:07.970Z,345
2022-09-02T00:34:07.331Z,359
2022-09-02T00:35:08.030Z,366
2022-09-02T00:36:07.657Z,354
2022-09-02T00:37:07.324Z,386
2022-09-02T00:38:07.677Z,366
2022-09-02T00:39:07.181Z,365
2022-09-02T00:40:07.710Z,356
2022-09-02T00:41:07.167Z,350
2022-09-02T00:42:07.482Z,349
2022-09-02T00:43:07.711Z,358
2022-09-02T00:44:07.341Z,365
2022-09-02T00:45:07.849Z,370
2022-09-02T00:46:07.271Z,368
2022-09-02T00:47:07.601Z,376
2022-09-02T00:48:07.038Z,373
2022-09-02T00:49:07.255Z,371
2022-09-02T00:50:07.760Z,368
2022-09-02T00:51:07.459Z,363
2022-09-02T00:52:07.059Z,365
2022-09-02T00:53:07.447Z,370
2022-09-02T00:54:07.525Z,369
2022-09-02T00:55:07.519Z,370
2022-09-02T00:56:06.893Z,365
2022-09-02T00:57:07.128Z,368
2022-09-02T00:58:09.401Z,377
2022-09-02T00:59:07.247Z,367
2022-09-02T01:00:08.355Z,368
2022-09-02T01:01:07.398Z,360
2022-09-02T01:02:07.923Z,373
2022-09-02T01:03:07.622Z,363
2022-09-02T01:05:07.961Z,355
2022-09-02T01:06:07.173Z,352
2022-09-02T01:07:07.601Z,362
2022-09-02T01:08:07.798Z,339
2022-09-02T01:09:07.406Z,350
2022-09-02T01:10:07.790Z,356
2022-09-02T01:11:07.386Z,368
2022-09-02T01:12:07.367Z,367
2022-09-02T01:13:07.712Z,374
2022-09-02T01:14:07.231Z,371
2022-09-02T01:15:07.831Z,378
2022-09-02T01:16:07.105Z,376
2022-09-02T01:17:07.569Z,355
2022-09-02T01:18:07.443Z,354
2022-09-02T01:19:07.799Z,357
2022-09-02T01:20:07.582Z,353
2022-09-02T01:21:07.244Z,342
2022-09-02T01:22:07.368Z,378
2022-09-02T01:23:07.662Z,355
2022-09-02T01:24:07.160Z,362
2022-09-02T01:25:07.521Z,352
2022-09-02T01:26:07.818Z,355
2022-09-02T01:27:07.351Z,366
2022-09-02T01:29:07.388Z,360
2022-09-02T01:30:07.767Z,359
2022-09-02T01:31:07.299Z,360
2022-09-02T01:32:07.841Z,382
2022-09-02T01:33:07.255Z,376
2022-09-02T01:34:07.395Z,373
2022-09-02T01:35:07.911Z,375
2022-09-02T01:36:07.120Z,374
2022-09-02T01:37:07.500Z,344
2022-09-02T01:38:07.434Z,404
2022-09-02T01:39:07.539Z,379
2022-09-02T01:40:07.966Z,374
2022-09-02T01:41:07.055Z,387
2022-09-02T01:42:07.278Z,375
2022-09-02T01:43:07.729Z,369
2022-09-02T01:44:07.777Z,370
2022-09-02T01:45:07.545Z,374
2022-09-02T01:46:07.187Z,376
2022-09-02T01:47:07.707Z,363
2022-09-02T01:48:07.342Z,356
2022-09-02T01:49:07.553Z,370
2022-09-02T01:50:07.619Z,366
2022-09-02T01:51:07.858Z,365
2022-09-02T01:53:07.770Z,371
2022-09-02T01:54:07.113Z,382
2022-09-02T01:55:07.495Z,391
2022-09-02T01:56:07.677Z,377
2022-09-02T01:57:07.710Z,371
2022-09-02T01:58:07.035Z,378
2022-09-02T01:59:07.180Z,381
2022-09-02T02:00:08.265Z,370
2022-09-02T02:01:07.562Z,369
2022-09-02T02:02:07.803Z,375
2022-09-02T02:03:07.312Z,391
2022-09-02T02:04:12.727Z,380
2022-09-02T02:05:07.216Z,365
2022-09-02T02:06:07.477Z,368
2022-09-02T02:07:07.409Z,362
2022-09-02T02:08:07.783Z,369
2022-09-02T02:09:07.224Z,350
2022-09-02T02:10:07.555Z,361
2022-09-02T02:11:07.767Z,372
2022-09-02T02:12:07.285Z,364
2022-09-02T02:13:07.493Z,362
2022-09-02T02:14:07.356Z,366
2022-09-02T02:15:07.912Z,370
2022-09-02T02:16:07.653Z,373
2022-09-02T02:17:07.257Z,369
2022-09-02T02:18:07.409Z,367
2022-09-02T02:20:07.835Z,370
2022-09-02T02:22:07.506Z,367
2022-09-02T02:23:07.627Z,366
2022-09-02T02:24:07.290Z,404
2022-09-02T02:25:07.475Z,375
2022-09-02T02:26:07.739Z,368
2022-09-02T02:27:07.369Z,366
2022-09-02T02:28:07.349Z,370
2022-09-02T02:29:07.289Z,373
2022-09-02T02:30:08.042Z,377
2022-09-02T02:31:07.397Z,384
2022-09-02T02:32:07.518Z,377
2022-09-02T02:34:07.811Z,364
2022-09-02T02:35:07.204Z,363
2022-09-02T02:36:07.276Z,372
2022-09-02T02:37:07.501Z,373
2022-09-02T02:38:07.672Z,371
2022-09-02T02:39:07.408Z,381
2022-09-02T02:40:07.505Z,344
2022-09-02T02:41:07.134Z,357
2022-09-02T02:42:07.417Z,361
2022-09-02T02:43:07.181Z,369
2022-09-02T02:44:07.533Z,375
2022-09-02T02:45:08.058Z,373
2022-09-02T02:46:07.884Z,368
2022-09-02T02:47:07.545Z,366
2022-09-02T02:48:07.567Z,365
2022-09-02T02:49:07.648Z,369
2022-09-02T02:50:07.746Z,376
2022-09-02T02:51:07.261Z,379
2022-09-02T02:52:07.598Z,367
2022-09-02T02:53:07.111Z,363
2022-09-02T02:54:07.266Z,357
2022-09-02T02:55:07.535Z,374
2022-09-02T02:56:07.137Z,372
2022-09-02T02:57:07.556Z,373
2022-09-02T02:58:07.694Z,384
2022-09-02T02:59:07.935Z,389
2022-09-02T03:00:07.891Z,376
2022-09-02T03:01:07.517Z,365
2022-09-02T03:02:08.095Z,366
2022-09-02T03:03:07.796Z,368
2022-09-02T03:04:07.218Z,371
2022-09-02T03:05:26.822Z,364
2022-09-02T03:06:07.323Z,367
2022-09-02T03:07:07.724Z,370
2022-09-02T03:08:07.461Z,373
2022-09-02T03:09:07.807Z,367
2022-09-02T03:10:07.554Z,362
2022-09-02T03:11:08.246Z,360
2022-09-02T03:12:07.754Z,365
2022-09-02T03:13:07.362Z,351
2022-09-02T03:14:07.640Z,352
2022-09-02T03:15:07.458Z,360
2022-09-02T03:16:07.919Z,366
2022-09-02T03:17:07.111Z,368
2022-09-02T03:18:07.500Z,360
2022-09-02T03:19:07.687Z,355
2022-09-02T03:20:07.395Z,358
2022-09-02T03:21:07.627Z,362
2022-09-02T03:22:07.077Z,377
2022-09-02T03:23:07.357Z,368
2022-09-02T03:24:07.708Z,373
2022-09-02T03:25:07.274Z,392
2022-09-02T03:26:07.629Z,373
2022-09-02T03:27:07.023Z,366
2022-09-02T03:28:07.393Z,362
2022-09-02T03:29:07.492Z,365
2022-09-02T03:30:08.005Z,360
2022-09-02T03:32:07.315Z,364
2022-09-02T03:33:07.226Z,370
2022-09-02T03:35:07.969Z,371
2022-09-02T03:36:07.465Z,375
2022-09-02T03:37:07.719Z,369
2022-09-02T03:39:09.931Z,361
2022-09-02T03:40:07.685Z,368
2022-09-02T03:41:07.382Z,366
2022-09-02T03:42:07.565Z,364
2022-09-02T03:43:07.482Z,365
2022-09-02T03:44:07.874Z,364
2022-09-02T03:45:07.772Z,372
2022-09-02T03:46:07.624Z,375
2022-09-02T03:47:07.548Z,381
2022-09-02T03:48:07.829Z,388
2022-09-02T03:49:07.535Z,390
2022-09-02T03:50:07.980Z,380
2022-09-02T03:51:07.605Z,370
2022-09-02T03:52:07.955Z,364
2022-09-02T03:53:07.360Z,354
2022-09-02T03:54:07.600Z,358
2022-09-02T03:55:07.861Z,378
2022-09-02T03:56:07.315Z,342
2022-09-02T03:57:07.392Z,358
2022-09-02T03:58:08.720Z,364
2022-09-02T03:59:07.670Z,371
2022-09-02T04:00:08.390Z,380
2022-09-02T04:01:07.482Z,384
2022-09-02T04:02:07.495Z,371
2022-09-02T04:03:07.635Z,373
2022-09-02T04:04:07.204Z,380
2022-09-02T04:06:07.372Z,370
2022-09-02T04:07:07.460Z,365
2022-09-02T04:08:07.555Z,369
2022-09-02T04:10:07.569Z,343
2022-09-02T04:11:07.401Z,398
2022-09-02T04:12:07.744Z,370
2022-09-02T04:13:07.646Z,372
2022-09-02T04:14:07.618Z,374
2022-09-02T04:15:07.976Z,379
2022-09-02T04:16:07.808Z,376
2022-09-02T04:17:07.467Z,386
2022-09-02T04:18:07.377Z,376
2022-09-02T04:19:07.832Z,371
2022-09-02T04:20:07.521Z,367
2022-09-02T04:22:07.192Z,365
2022-09-02T04:23:07.643Z,371
2022-09-02T04:24:07.442Z,384
2022-09-02T04:25:07.545Z,382
2022-09-02T04:26:07.322Z,370
2022-09-02T04:27:07.661Z,386
2022-09-02T04:28:07.243Z,377
2022-09-02T04:29:07.533Z,371
2022-09-02T04:30:07.320Z,373
2022-09-02T04:31:07.836Z,378
2022-09-02T04:32:07.386Z,374
2022-09-02T04:33:07.561Z,370
2022-09-02T04:34:07.779Z,377
2022-09-02T04:35:07.796Z,373
2022-09-02T04:36:07.358Z,368
2022-09-02T04:37:07.835Z,365
2022-09-02T04:38:07.490Z,376
2022-09-02T04:39:07.716Z,377
2022-09-02T04:41:07.290Z,372
2022-09-02T04:42:08.055Z,350
2022-09-02T04:43:07.472Z,403
2022-09-02T04:44:07.926Z,388
2022-09-02T04:45:07.425Z,381
2022-09-02T04:46:07.342Z,387
2022-09-02T04:47:07.394Z,382
2022-09-02T04:48:07.801Z,386
2022-09-02T04:49:07.312Z,384
2022-09-02T04:50:07.860Z,380
2022-09-02T04:51:07.458Z,383
2022-09-02T04:53:07.758Z,393
2022-09-02T04:54:06.994Z,394
2022-09-02T04:55:07.404Z,374
2022-09-02T04:56:07.408Z,375
2022-09-02T04:57:07.418Z,374
2022-09-02T04:58:08.136Z,392
2022-09-02T04:59:07.979Z,381
2022-09-02T05:00:13.304Z,376
2022-09-02T05:01:07.231Z,377
2022-09-02T05:02:07.815Z,381
2022-09-02T05:03:07.498Z,383
2022-09-02T05:04:07.692Z,378
2022-09-02T05:05:07.385Z,376
2022-09-02T05:06:07.694Z,383
2022-09-02T05:07:07.305Z,384
2022-09-02T05:08:07.907Z,390
2022-09-02T05:09:07.550Z,389
2022-09-02T05:10:07.888Z,391
2022-09-02T05:11:07.516Z,382
2022-09-02T05:12:07.764Z,378
2022-09-02T05:13:07.395Z,366
2022-09-02T05:14:07.843Z,429
2022-09-02T05:15:07.633Z,385
2022-09-02T05:16:07.336Z,386
2022-09-02T05:18:07.588Z,384
2022-09-02T05:19:07.491Z,386
2022-09-02T05:20:08.195Z,392
2022-09-02T05:22:07.193Z,390
2022-09-02T05:23:07.553Z,382
2022-09-02T05:24:07.751Z,384
2022-09-02T05:25:07.701Z,385
2022-09-02T05:26:07.522Z,377
2022-09-02T05:27:07.489Z,382
2022-09-02T05:28:07.704Z,390
2022-09-02T05:29:07.240Z,386
2022-09-02T05:30:08.246Z,382
2022-09-02T05:31:07.638Z,380
2022-09-02T05:32:07.322Z,371
2022-09-02T05:33:07.658Z,375
2022-09-02T05:34:07.629Z,377
2022-09-02T05:35:07.713Z,390
2022-09-02T05:36:07.270Z,386
2022-09-02T05:37:07.543Z,384
2022-09-02T05:38:07.377Z,388
2022-09-02T05:39:07.372Z,393
2022-09-02T05:40:07.960Z,386
2022-09-02T05:41:07.594Z,388
2022-09-02T05:42:08.056Z,386
2022-09-02T05:43:07.475Z,395
2022-09-02T05:44:07.146Z,381
2022-09-02T05:45:07.809Z,384
2022-09-02T05:46:07.375Z,369
2022-09-02T05:47:08.043Z,373
2022-09-02T05:48:07.517Z,378
2022-09-02T05:49:07.923Z,383
2022-09-02T05:50:07.856Z,381
2022-09-02T05:51:07.679Z,391
2022-09-02T05:52:07.644Z,381
2022-09-02T05:53:12.290Z,387
2022-09-02T05:54:07.492Z,395
2022-09-02T05:55:07.881Z,399
2022-09-02T05:56:07.634Z,392
2022-09-02T05:57:07.192Z,378
2022-09-02T05:58:07.403Z,370
2022-09-02T05:59:07.471Z,375
2022-09-02T06:00:08.567Z,363
2022-09-02T06:01:07.918Z,405
2022-09-02T06:02:07.593Z,376
2022-09-02T06:03:07.556Z,365
2022-09-02T06:04:07.476Z,368
2022-09-02T06:05:07.858Z,365
2022-09-02T06:06:07.744Z,368
2022-09-02T06:07:07.448Z,376
2022-09-02T06:08:07.872Z,378
2022-09-02T06:09:07.974Z,371
2022-09-02T06:10:08.043Z,372
2022-09-02T06:11:07.954Z,371
2022-09-02T06:12:07.491Z,366
2022-09-02T06:13:07.290Z,384
2022-09-02T06:14:07.842Z,382
2022-09-02T06:15:07.809Z,368
2022-09-02T06:16:07.921Z,371
2022-09-02T06:17:08.115Z,365
2022-09-02T06:18:08.052Z,359
2022-09-02T06:19:07.475Z,377
2022-09-02T06:20:07.996Z,378
2022-09-02T06:21:07.676Z,372
2022-09-02T06:22:07.259Z,381
2022-09-02T06:23:07.669Z,373
2022-09-02T06:24:07.338Z,358
2022-09-02T06:25:08.125Z,363
2022-09-02T06:26:07.719Z,365
2022-09-02T06:27:07.347Z,366
2022-09-02T06:28:07.578Z,372
2022-09-02T06:29:07.898Z,368
2022-09-02T06:30:07.874Z,372
2022-09-02T06:31:07.862Z,354
2022-09-02T06:32:07.591Z,382
2022-09-02T06:33:07.390Z,381
2022-09-02T06:34:07.682Z,377
2022-09-02T06:35:07.171Z,380
2022-09-02T06:36:07.887Z,368
2022-09-02T06:37:07.303Z,361
2022-09-02T06:38:07.553Z,354
2022-09-02T06:39:07.438Z,368
2022-09-02T06:40:08.220Z,365
2022-09-02T06:41:07.740Z,366
2022-09-02T06:42:07.967Z,373
2022-09-02T06:43:07.410Z,371
2022-09-02T06:45:07.889Z,368
2022-09-02T06:46:07.640Z,374
2022-09-02T06:47:07.547Z,363
2022-09-02T06:48:08.450Z,400
2022-09-02T06:49:07.709Z,373
2022-09-02T06:50:08.163Z,370
2022-09-02T06:51:07.885Z,371
2022-09-02T06:52:07.456Z,366
2022-09-02T06:53:08.217Z,361
2022-09-02T06:54:07.488Z,368
2022-09-02T06:55:07.697Z,372
2022-09-02T06:56:07.221Z,361
2022-09-02T06:57:07.587Z,366
2022-09-02T06:58:07.886Z,370
2022-09-02T06:59:07.464Z,359
2022-09-02T07:00:07.857Z,361
2022-09-02T07:01:07.495Z,363
2022-09-02T07:02:08.464Z,366
2022-09-02T07:03:07.605Z,368
2022-09-02T07:04:07.821Z,377
2022-09-02T07:05:07.178Z,365
2022-09-02T07:06:07.816Z,364
2022-09-02T07:07:07.262Z,370
2022-09-02T07:08:07.565Z,355
2022-09-02T07:09:07.519Z,363
2022-09-02T07:10:07.993Z,354
2022-09-02T07:11:07.481Z,359
2022-09-02T07:12:07.864Z,370
2022-09-02T07:14:07.678Z,355
2022-09-02T07:15:07.334Z,365
2022-09-02T07:16:07.763Z,368
2022-09-02T07:17:07.642Z,375
2022-09-02T07:19:13.222Z,362
2022-09-02T07:20:07.966Z,373
2022-09-02T07:21:07.521Z,374
2022-09-02T07:22:07.560Z,375
2022-09-02T07:23:07.178Z,367
2022-09-02T07:24:07.712Z,377
2022-09-02T07:25:07.551Z,366
2022-09-02T07:26:07.228Z,359
2022-09-02T07:27:07.689Z,361
2022-09-02T07:28:07.461Z,359
2022-09-02T07:29:07.819Z,357
2022-09-02T07:30:07.615Z,370
2022-09-02T07:31:15.304Z,376
2022-09-02T07:32:07.901Z,358
2022-09-02T07:33:15.519Z,414
2022-09-02T07:34:07.301Z,368
2022-09-02T07:35:07.886Z,363
2022-09-02T07:36:11.098Z,361
2022-09-02T07:37:10.708Z,359
2022-09-02T07:38:07.659Z,364
2022-09-02T07:39:07.311Z,354
2022-09-02T07:40:07.516Z,348
2022-09-02T07:41:07.672Z,353
2022-09-02T07:42:14.572Z,359
2022-09-02T07:43:07.442Z,355
2022-09-02T07:44:07.986Z,365
2022-09-02T07:45:07.423Z,355
2022-09-02T07:46:08.278Z,352
2022-09-02T07:47:08.228Z,358
2022-09-02T07:48:07.572Z,370
2022-09-02T07:49:09.574Z,351
2022-09-02T07:51:07.375Z,344
2022-09-02T07:52:07.848Z,353
2022-09-02T07:53:07.531Z,355
2022-09-02T07:55:12.620Z,358
2022-09-02T07:56:07.609Z,356
2022-09-02T07:57:07.666Z,347
2022-09-02T07:58:07.338Z,360
2022-09-02T07:59:07.637Z,366
2022-09-02T08:00:07.701Z,369
2022-09-02T08:01:07.606Z,361
2022-09-02T08:02:07.158Z,366
2022-09-02T08:05:07.919Z,361
2022-09-02T08:06:07.489Z,358
2022-09-02T08:08:07.279Z,362
2022-09-02T08:09:08.072Z,367
2022-09-02T08:10:07.851Z,349
2022-09-02T08:11:07.530Z,343
2022-09-02T08:12:07.972Z,348
2022-09-02T08:13:07.476Z,357
2022-09-02T08:14:07.897Z,354
2022-09-02T08:15:07.561Z,343
2022-09-02T08:16:07.833Z,352
2022-09-02T08:17:08.181Z,351
2022-09-02T08:18:08.562Z,361
2022-09-02T08:19:07.823Z,370
2022-09-02T08:20:11.725Z,367
2022-09-02T08:21:07.823Z,354
2022-09-02T08:22:07.520Z,350
2022-09-02T08:23:11.578Z,347
2022-09-02T08:24:08.253Z,358
2022-09-02T08:25:07.952Z,362
2022-09-02T08:26:07.607Z,360
2022-09-02T08:27:07.583Z,359
2022-09-02T08:28:07.390Z,368
2022-09-02T08:29:08.019Z,348
2022-09-02T08:30:07.599Z,353
2022-09-02T08:31:07.529Z,332
2022-09-02T08:32:07.424Z,343
2022-09-02T08:33:07.503Z,334
2022-09-02T08:34:07.535Z,338
2022-09-02T08:35:07.832Z,337
2022-09-02T08:36:07.375Z,352
2022-09-02T08:37:07.901Z,338
2022-09-02T08:38:07.464Z,334
2022-09-02T08:39:07.982Z,343
2022-09-02T08:40:07.810Z,346
2022-09-02T08:41:07.281Z,344
2022-09-02T08:42:07.745Z,341
2022-09-02T08:43:07.148Z,340
2022-09-02T08:44:07.986Z,335
2022-09-02T08:45:07.630Z,338
2022-09-02T08:46:07.458Z,343
2022-09-02T08:47:07.765Z,340
2022-09-02T08:48:07.158Z,331
2022-09-02T08:49:07.675Z,341
2022-09-02T08:50:07.766Z,339
2022-09-02T08:51:07.455Z,341
2022-09-02T08:52:07.760Z,347
2022-09-02T08:53:07.854Z,336
2022-09-02T08:54:07.391Z,346
2022-09-02T08:55:07.802Z,337
2022-09-02T08:56:07.295Z,324
2022-09-02T08:57:07.687Z,327
2022-09-02T08:58:07.111Z,330
2022-09-02T08:59:07.577Z,348
2022-09-02T09:00:08.792Z,344
2022-09-02T09:01:07.819Z,353
2022-09-02T09:02:07.593Z,340
2022-09-02T09:03:07.594Z,338
2022-09-02T09:04:07.363Z,350
2022-09-02T09:05:08.270Z,330
2022-09-02T09:06:07.854Z,323
2022-09-02T09:07:07.589Z,341
2022-09-02T09:08:09.702Z,353
2022-09-02T09:09:07.352Z,356
2022-09-02T09:10:08.087Z,344
2022-09-02T09:12:08.044Z,355
2022-09-02T09:13:07.846Z,321
2022-09-02T09:14:07.610Z,335
2022-09-02T09:15:07.677Z,338
2022-09-02T09:16:07.450Z,344
2022-09-02T09:17:08.198Z,332
2022-09-02T09:18:07.663Z,336
2022-09-02T09:19:08.819Z,345
2022-09-02T09:20:07.631Z,343
2022-09-02T09:21:08.184Z,332
2022-09-02T09:22:07.724Z,325
2022-09-02T09:23:07.203Z,334
2022-09-02T09:24:07.922Z,351
2022-09-02T09:25:07.430Z,357
2022-09-02T09:26:07.992Z,328
2022-09-02T09:27:07.550Z,331
2022-09-02T09:28:08.072Z,348
2022-09-02T09:29:07.765Z,344
2022-09-02T09:30:11.528Z,339
2022-09-02T09:31:07.082Z,340
2022-09-02T09:32:07.673Z,354
2022-09-02T09:33:07.212Z,341
2022-09-02T09:34:07.859Z,340
2022-09-02T09:35:07.809Z,344
2022-09-02T09:36:07.488Z,350
2022-09-02T09:37:07.788Z,349
2022-09-02T09:38:07.330Z,343
2022-09-02T09:39:07.587Z,348
2022-09-02T09:40:08.051Z,339
2022-09-02T09:41:07.684Z,326
2022-09-02T09:42:07.645Z,317
2022-09-02T09:43:14.152Z,333
2022-09-02T09:44:07.630Z,341
2022-09-02T09:45:07.511Z,338
2022-09-02T09:46:07.627Z,323
2022-09-02T09:47:07.675Z,330
2022-09-02T09:48:07.632Z,334
2022-09-02T09:49:07.557Z,324
2022-09-02T09:50:07.642Z,342
2022-09-02T09:51:07.677Z,344
2022-09-02T09:52:07.295Z,322
2022-09-02T09:53:07.706Z,350
2022-09-02T09:54:07.301Z,345
2022-09-02T09:55:07.935Z,342
2022-09-02T09:56:16.052Z,344
2022-09-02T09:57:07.588Z,342
2022-09-02T09:58:07.708Z,333
2022-09-02T09:59:07.152Z,336
2022-09-02T10:00:08.614Z,334
2022-09-02T10:01:07.432Z,335
2022-09-02T10:02:08.220Z,340
2022-09-02T10:03:07.724Z,342
2022-09-02T10:04:20.647Z,346
2022-09-02T10:05:07.648Z,342
2022-09-02T10:06:07.437Z,344
2022-09-02T10:07:07.866Z,350
2022-09-02T10:08:13.125Z,353
2022-09-02T10:09:07.622Z,350
2022-09-02T10:10:07.679Z,341
2022-09-02T10:11:07.549Z,344
2022-09-02T10:12:08.157Z,328
2022-09-02T10:13:07.872Z,327
2022-09-02T10:14:07.532Z,331
2022-09-02T10:15:08.397Z,333
2022-09-02T10:16:07.612Z,343
2022-09-02T10:17:07.807Z,342
2022-09-02T10:18:07.808Z,336
2022-09-02T10:19:07.384Z,335
2022-09-02T10:20:08.071Z,325
2022-09-02T10:21:15.570Z,332
2022-09-02T10:22:07.743Z,338
2022-09-02T10:23:07.654Z,322
2022-09-02T10:24:07.520Z,329
2022-09-02T10:25:07.372Z,334
2022-09-02T10:26:07.737Z,331
2022-09-02T10:27:07.057Z,336
2022-09-02T10:28:07.648Z,348
2022-09-02T10:29:07.165Z,358
2022-09-02T10:30:08.193Z,357
2022-09-02T10:31:08.093Z,355
2022-09-02T10:32:07.856Z,357
2022-09-02T10:33:07.479Z,347
2022-09-02T10:34:07.164Z,337
2022-09-02T10:35:07.646Z,331
2022-09-02T10:36:07.274Z,335
2022-09-02T10:37:07.637Z,345
2022-09-02T10:38:08.139Z,343
2022-09-02T10:39:07.561Z,339
2022-09-02T10:40:08.161Z,345
2022-09-02T10:41:08.068Z,344
2022-09-02T10:42:07.826Z,355
2022-09-02T10:43:07.652Z,350
2022-09-02T10:44:07.454Z,345
2022-09-02T10:45:08.159Z,330
2022-09-02T10:46:08.169Z,373
2022-09-02T10:47:07.854Z,350
2022-09-02T10:48:07.518Z,345
2022-09-02T10:49:08.103Z,340
2022-09-02T10:50:07.583Z,321
2022-09-02T10:51:07.590Z,322
2022-09-02T10:52:07.539Z,326
2022-09-02T10:53:09.520Z,330
2022-09-02T10:54:07.466Z,340
2022-09-02T10:56:07.376Z,342
2022-09-02T10:57:07.520Z,337
2022-09-02T10:58:08.735Z,332
2022-09-02T10:59:08.032Z,335
2022-09-02T11:00:08.479Z,351
2022-09-02T11:01:07.569Z,344
2022-09-02T11:02:10.465Z,346
2022-09-02T11:03:07.634Z,344
2022-09-02T11:05:08.174Z,339
2022-09-02T11:06:07.789Z,344
2022-09-02T11:07:07.614Z,340
2022-09-02T11:08:07.358Z,338
2022-09-02T11:09:07.841Z,352
2022-09-02T11:10:07.722Z,343
2022-09-02T11:11:07.470Z,351
2022-09-02T11:12:07.205Z,352
2022-09-02T11:13:07.886Z,351
2022-09-02T11:14:07.644Z,362
2022-09-02T11:15:07.533Z,365
2022-09-02T11:16:07.584Z,351
2022-09-02T11:17:13.449Z,356
2022-09-02T11:18:07.671Z,348
2022-09-02T11:19:07.391Z,350
2022-09-02T11:20:08.105Z,356
2022-09-02T11:21:07.975Z,362
2022-09-02T11:22:07.870Z,363
2022-09-02T11:23:07.132Z,354
2022-09-02T11:24:07.933Z,343
2022-09-02T11:25:07.744Z,385
2022-09-02T11:26:07.641Z,370
2022-09-02T11:27:25.503Z,363
2022-09-02T11:28:07.907Z,367
2022-09-02T11:29:07.485Z,361
2022-09-02T11:30:07.481Z,356
2022-09-02T11:31:07.521Z,349
2022-09-02T11:32:07.259Z,350
2022-09-02T11:33:07.761Z,364
2022-09-02T11:34:07.610Z,356
2022-09-02T11:35:07.769Z,351
2022-09-02T11:36:07.199Z,371
2022-09-02T11:37:07.624Z,373
2022-09-02T11:38:07.665Z,366
2022-09-02T11:39:07.129Z,353
2022-09-02T11:40:30.593Z,352
2022-09-02T11:41:37.154Z,346
2022-09-02T11:42:07.379Z,349
2022-09-02T11:43:08.030Z,358
2022-09-02T11:44:07.870Z,350
2022-09-02T11:45:07.572Z,352
2022-09-02T11:46:07.405Z,359
2022-09-02T11:47:07.247Z,363
2022-09-02T11:48:07.918Z,352
2022-09-02T11:49:08.456Z,366
2022-09-02T11:50:07.908Z,345
2022-09-02T11:51:07.255Z,346
2022-09-02T11:52:07.516Z,351
2022-09-02T11:53:07.630Z,359
2022-09-02T11:54:06.978Z,358
2022-09-02T11:55:07.895Z,370
2022-09-02T11:56:07.479Z,359
2022-09-02T11:57:07.631Z,352
2022-09-02T11:58:07.324Z,350
2022-09-02T11:59:07.610Z,347
2022-09-02T12:00:07.871Z,340
2022-09-02T12:01:08.295Z,322
2022-09-02T12:02:07.822Z,370
2022-09-02T12:03:12.209Z,347
2022-09-02T12:04:55.933Z,346
2022-09-02T12:05:08.817Z,360
2022-09-02T12:06:07.803Z,358
2022-09-02T12:07:12.581Z,359
2022-09-02T12:08:07.202Z,349
2022-09-02T12:09:12.540Z,356
2022-09-02T12:10:08.014Z,345
2022-09-02T12:11:12.565Z,344
2022-09-02T12:12:07.701Z,351
2022-09-02T12:13:08.078Z,361
2022-09-02T12:14:08.194Z,369
2022-09-02T12:15:12.744Z,360
2022-09-02T12:16:07.554Z,363
2022-09-02T12:17:07.951Z,366
2022-09-02T12:18:07.245Z,349
2022-09-02T12:19:07.925Z,350
2022-09-02T12:20:07.393Z,347
2022-09-02T12:21:07.996Z,337
2022-09-02T12:22:07.905Z,344
2022-09-02T12:23:07.311Z,353
2022-09-02T12:24:07.452Z,365
2022-09-02T12:25:07.833Z,375
2022-09-02T12:26:07.747Z,355
2022-09-02T12:27:07.763Z,374
2022-09-02T12:28:07.428Z,355
2022-09-02T12:29:07.695Z,351
2022-09-02T12:30:07.942Z,346
2022-09-02T12:31:07.990Z,343
2022-09-02T12:33:07.533Z,345
2022-09-02T12:34:07.825Z,346
2022-09-02T12:35:07.766Z,353
2022-09-02T12:36:07.483Z,344
2022-09-02T12:37:07.683Z,342
2022-09-02T12:38:07.442Z,337
2022-09-02T12:39:21.879Z,344
2022-09-02T12:40:07.530Z,355
2022-09-02T12:42:07.314Z,340
2022-09-02T12:43:07.565Z,344
2022-09-02T12:44:07.944Z,347
2022-09-02T12:45:08.058Z,332
2022-09-02T12:46:07.653Z,338
2022-09-02T12:47:07.129Z,351
2022-09-02T12:48:07.469Z,367
2022-09-02T12:49:07.242Z,364
2022-09-02T12:50:07.755Z,354
2022-09-02T12:51:07.588Z,365
2022-09-02T12:52:07.132Z,356
2022-09-02T12:53:07.428Z,352
2022-09-02T12:54:07.687Z,357
2022-09-02T12:55:08.000Z,350
2022-09-02T12:56:07.373Z,356
2022-09-02T12:57:07.481Z,357
2022-09-02T12:58:07.777Z,354
2022-09-02T12:59:07.977Z,355
2022-09-02T13:00:07.864Z,360
2022-09-02T13:01:07.751Z,370
2022-09-02T13:02:07.992Z,359
2022-09-02T13:03:07.392Z,379
2022-09-02T13:04:07.847Z,362
2022-09-02T13:05:07.488Z,361
2022-09-02T13:06:08.022Z,359
2022-09-02T13:07:07.643Z,352
2022-09-02T13:08:07.893Z,354
2022-09-02T13:09:07.295Z,358
2022-09-02T13:10:07.901Z,351
2022-09-02T13:11:07.374Z,352
2022-09-02T13:12:07.715Z,342
2022-09-02T13:13:07.303Z,352
2022-09-02T13:14:07.842Z,359
2022-09-02T13:15:07.497Z,357
2022-09-02T13:16:07.864Z,344
2022-09-02T13:17:25.931Z,350
2022-09-02T13:18:07.201Z,353
2022-09-02T13:20:07.842Z,361
2022-09-02T13:21:07.257Z,366
2022-09-02T13:22:07.040Z,341
2022-09-02T13:23:07.646Z,333
2022-09-02T13:24:07.175Z,332
2022-09-02T13:25:07.752Z,340
2022-09-02T13:26:07.515Z,331
2022-09-02T13:27:11.492Z,379
2022-09-02T13:28:07.352Z,348
2022-09-02T13:29:07.374Z,334
2022-09-02T13:30:08.074Z,332
2022-09-02T13:31:07.710Z,323
2022-09-02T13:32:07.437Z,333
2022-09-02T13:33:07.611Z,334
2022-09-02T13:34:08.166Z,341
2022-09-02T13:35:07.901Z,336
2022-09-02T13:36:07.688Z,343
2022-09-02T13:37:08.138Z,337
2022-09-02T13:38:07.495Z,349
2022-09-02T13:39:08.035Z,346
2022-09-02T13:40:07.766Z,345
2022-09-02T13:41:09.397Z,350
2022-09-02T13:42:08.070Z,346
2022-09-02T13:43:07.727Z,350
2022-09-02T13:44:07.328Z,346
2022-09-02T13:45:07.802Z,345
2022-09-02T13:46:07.307Z,346
2022-09-02T13:47:07.822Z,336
2022-09-02T13:48:07.479Z,338
2022-09-02T13:50:07.030Z,356
2022-09-02T13:51:07.518Z,326
2022-09-02T13:52:07.669Z,332
2022-09-02T13:53:45.892Z,336
2022-09-02T13:54:22.572Z,334
2022-09-02T13:55:07.647Z,338
2022-09-02T13:56:07.980Z,349
2022-09-02T13:57:07.360Z,365
2022-09-02T13:58:07.666Z,355
2022-09-02T13:59:07.116Z,352
2022-09-02T14:00:08.226Z,345
2022-09-02T14:01:08.047Z,358
2022-09-02T14:02:09.290Z,334
2022-09-02T14:03:07.767Z,322
2022-09-02T14:04:07.570Z,334
2022-09-02T14:05:07.690Z,345
2022-09-02T14:06:07.533Z,348
2022-09-02T14:07:07.927Z,342
2022-09-02T14:08:07.556Z,329
2022-09-02T14:09:08.111Z,341
2022-09-02T14:10:07.644Z,335
2022-09-02T14:11:08.960Z,328
2022-09-02T14:12:07.639Z,336
2022-09-02T14:13:06.996Z,343
2022-09-02T14:14:07.418Z,334
2022-09-02T14:15:07.793Z,341
2022-09-02T14:16:07.439Z,340
2022-09-02T14:17:07.419Z,345
2022-09-02T14:18:07.584Z,349
2022-09-02T14:19:07.978Z,351